»·PEaware :: N3721C KSBA-KBUR

N3721C :: KSBA-KBUR

FLIGHT INFORMATION

Flight Status: Arrived
Operator: Privately registered:
United States
More flights under this callsign
Pilot: David A. (17913)
Aircraft: BEECH AIRCRAFT BARON
(BE58)
More flights by this aircraft type
Origin: KSBA Santa Barbara Mun
United States
Destination: KBUR Bob Hope-Burbank
United States
More flights between these airports :: More routes between these airports
Route:
File this flight plan on PilotEdge
Remarks:
Altitude:
(Current/Filed)
7,500ft
Speed:
(Current/Filed)
0kts
Departed: 13-Feb-18 08:32 PM
Arrived: 13-Feb-18 09:11 PM
Distance/Time
Traveled:
75nm/0:39
Distance/Time
To Go:
Arrived

Flight Plot

Page will automatically refresh every two minutes.


Map Options




Map Legend


Flown Route
Filed Route
Departure Airport
Arrival Airport
Navaid (VOR, NDB)
Fix

Horizontal Profiles

Position Reports

Time Latitude Longitude Heading Altitude Ground
Speed
13-Feb-18 20:21 34.422581 -119.836226 272 11ft 0kts
13-Feb-18 20:22 34.422581 -119.836226 272 11ft 0kts
13-Feb-18 20:23 34.422581 -119.836226 272 11ft 0kts
13-Feb-18 20:24 34.422581 -119.836226 272 11ft 0kts
13-Feb-18 20:25 34.422581 -119.836226 272 11ft 0kts
13-Feb-18 20:26 34.422581 -119.836226 272 11ft 0kts
13-Feb-18 20:27 34.422581 -119.836226 272 11ft 0kts
13-Feb-18 20:28 34.422581 -119.836226 272 11ft 0kts
13-Feb-18 20:29 34.422581 -119.836226 272 11ft 0kts
13-Feb-18 20:30 34.422581 -119.836226 272 11ft 0kts
13-Feb-18 20:31 34.422581 -119.836226 272 11ft 0kts
13-Feb-18 20:34 34.422590 -119.836438 272 11ft 7kts
13-Feb-18 20:35 34.424898 -119.837798 346 11ft 15kts
13-Feb-18 20:36 34.426759 -119.835061 85 11ft 13kts
13-Feb-18 20:37 34.427031 -119.834598 4 11ft 0kts
13-Feb-18 20:38 34.427036 -119.834598 1 11ft 0kts
13-Feb-18 20:39 34.427630 -119.842720 269 11ft 66kts
13-Feb-18 20:40 34.425999 -119.880878 258 1243ft 125kts
13-Feb-18 20:43 34.356799 -120.004027 121 2169ft 136kts
13-Feb-18 20:44 34.349824 -119.963171 94 3370ft 123kts
13-Feb-18 20:45 34.349009 -119.922824 85 4495ft 115kts
13-Feb-18 20:46 34.350753 -119.881073 88 5300ft 125kts
13-Feb-18 20:47 34.352701 -119.837933 88 6471ft 128kts
13-Feb-18 20:48 34.355110 -119.794619 88 7433ft 146kts
13-Feb-18 20:49 34.357814 -119.740182 88 7410ft 170kts
13-Feb-18 20:50 34.351341 -119.690814 88 6925ft 171kts
13-Feb-18 20:51 34.352276 -119.636149 88 7278ft 164kts
13-Feb-18 20:52 34.353338 -119.578843 88 7274ft 177kts
13-Feb-18 20:53 34.354465 -119.517764 88 7271ft 184kts
13-Feb-18 20:54 34.355637 -119.455733 88 7271ft 184kts
13-Feb-18 20:55 34.356788 -119.393851 89 7270ft 185kts
13-Feb-18 20:56 34.354522 -119.333398 97 7271ft 185kts
13-Feb-18 20:57 34.347941 -119.273788 97 7271ft 185kts
13-Feb-18 20:58 34.341164 -119.212416 97 7269ft 185kts
13-Feb-18 20:59 34.333807 -119.150991 98 7261ft 185kts
13-Feb-18 21:00 34.326129 -119.089566 98 7261ft 185kts
13-Feb-18 21:01 34.318482 -119.028249 98 7287ft 184kts
13-Feb-18 21:02 34.310849 -118.966999 98 7287ft 185kts
13-Feb-18 21:03 34.298272 -118.906716 106 7287ft 185kts
13-Feb-18 21:04 34.283711 -118.847368 106 7295ft 184kts
13-Feb-18 21:05 34.269092 -118.787742 106 7296ft 185kts
13-Feb-18 21:06 34.255152 -118.727971 104 7296ft 185kts
13-Feb-18 21:07 34.242791 -118.669396 102 7291ft 170kts
13-Feb-18 21:08 34.232921 -118.615320 102 7299ft 166kts
13-Feb-18 21:09 34.222775 -118.559954 102 7297ft 173kts
13-Feb-18 21:10 34.212440 -118.503417 102 7296ft 174kts
13-Feb-18 21:11 34.202572 -118.452838 106 6936ft 126kts
13-Feb-18 21:12 34.173928 -118.436203 214 5032ft 147kts
13-Feb-18 21:13 34.168749 -118.476577 275 3298ft 130kts
13-Feb-18 21:14 34.192228 -118.491698 20 2607ft 118kts
13-Feb-18 21:15 34.199783 -118.457027 92 2175ft 122kts
13-Feb-18 21:16 34.198470 -118.420257 91 1778ft 107kts
13-Feb-18 21:17 34.198103 -118.386097 90 1049ft 100kts
13-Feb-18 21:18 34.197790 -118.358483 108 735ft 22kts
13-Feb-18 21:19 34.196879 -118.357992 182 735ft 6kts
13-Feb-18 21:20 34.195615 -118.358613 284 735ft 0kts
13-Feb-18 21:21 34.195616 -118.358617 284 735ft 0kts

Navigation Log

Ident Type
1. KSBA Airport
2. KBUR Airport